Terminal Aerodrome Forecast
Issued by NWS Wakefield, VA

Home | Current Version | Previous Version | Text Only | Print | Product List | Glossary On
Versions: 1 2 3 4 5 6 7 8 9 10 11 12 13 14 15 16 17 18 19
000
FTUS41 KAKQ 311143 CCA
TAFECG
TAF COR
KECG 311143Z 3112/0112 35005KT 3SM BR BKN002
      TEMPO 3112/3113 P6SM NSW SCT003
     FM311300 04007KT P6SM SCT120
     FM312000 08009KT P6SM BKN120
     FM312300 13006KT P6SM BKN060
     FM010300 19006KT P6SM BKN100=

USA.gov is the U.S. government's official web portal to all federal, state and local government web resources and services.